createdAt,value
2023-01-13T00:02:09.517Z,73.63
2023-01-13T00:04:41.789Z,73.63
2023-01-13T00:07:14.257Z,73.60
2023-01-13T00:09:46.395Z,73.44
2023-01-13T00:12:18.611Z,73.66
2023-01-13T00:14:50.776Z,73.64
2023-01-13T00:17:23.621Z,73.56
2023-01-13T00:19:56.598Z,73.70
2023-01-13T00:22:28.786Z,73.48
2023-01-13T00:25:01.615Z,73.62
2023-01-13T00:27:34.188Z,73.62
2023-01-13T00:30:07.896Z,73.66
2023-01-13T00:32:40.060Z,73.64
2023-01-13T00:35:12.614Z,73.64
2023-01-13T00:37:44.924Z,73.61
2023-01-13T00:40:17.473Z,73.62
2023-01-13T00:43:06.294Z,73.63
2023-01-13T00:45:39.227Z,73.64
2023-01-13T00:48:11.444Z,73.62
2023-01-13T00:50:43.648Z,73.70
2023-01-13T00:53:18.740Z,73.60
2023-01-13T00:55:51.045Z,73.58
2023-01-13T00:58:23.239Z,73.76
2023-01-13T01:00:55.609Z,73.66
2023-01-13T01:03:27.809Z,73.68
2023-01-13T01:06:05.660Z,73.67
2023-01-13T01:08:38.349Z,73.62
2023-01-13T01:11:12.684Z,73.72
2023-01-13T01:13:45.669Z,73.75
2023-01-13T01:16:19.410Z,73.48
2023-01-13T01:18:53.391Z,73.55
2023-01-13T01:21:26.893Z,73.50
2023-01-13T01:24:02.020Z,73.48
2023-01-13T01:26:34.352Z,73.48
2023-01-13T01:29:06.572Z,73.43
2023-01-13T01:31:38.774Z,73.47
2023-01-13T01:34:10.952Z,73.54
2023-01-13T01:36:44.027Z,73.63
2023-01-13T01:39:16.345Z,73.54
2023-01-13T01:42:02.352Z,73.54
2023-01-13T01:45:13.578Z,73.64
2023-01-13T01:47:47.018Z,73.60
2023-01-13T01:50:21.037Z,73.55
2023-01-13T01:52:57.921Z,73.33
2023-01-13T01:55:33.652Z,73.59
2023-01-13T01:58:10.764Z,73.64
2023-01-13T02:00:43.039Z,73.61
2023-01-13T02:03:16.496Z,73.63
2023-01-13T02:05:48.833Z,73.56
2023-01-13T02:08:22.069Z,73.62
2023-01-13T02:10:56.943Z,73.69
2023-01-13T02:13:29.172Z,73.59
2023-01-13T02:16:10.240Z,73.58
2023-01-13T02:18:55.329Z,73.61
2023-01-13T02:21:51.704Z,73.68
2023-01-13T02:24:57.084Z,73.65
2023-01-13T02:27:58.871Z,73.64
2023-01-13T02:31:04.683Z,73.78
2023-01-13T02:34:00.646Z,73.66
2023-01-13T02:36:39.151Z,73.56
2023-01-13T02:39:17.280Z,73.47
2023-01-13T02:42:13.008Z,73.29
2023-01-13T02:44:49.244Z,73.51
2023-01-13T02:47:25.106Z,73.56
2023-01-13T02:50:02.797Z,73.42
2023-01-13T02:52:39.159Z,73.57
2023-01-13T02:55:16.885Z,73.64
2023-01-13T02:57:50.933Z,73.62
2023-01-13T03:00:24.786Z,73.72
2023-01-13T03:02:57.068Z,73.66
2023-01-13T03:05:31.325Z,73.54
2023-01-13T03:08:18.558Z,73.64
2023-01-13T03:11:07.741Z,73.76
2023-01-13T03:14:06.150Z,73.73
2023-01-13T03:16:53.591Z,73.70
2023-01-13T03:19:38.083Z,73.70
2023-01-13T03:22:22.343Z,73.68
2023-01-13T03:24:57.818Z,73.74
2023-01-13T03:27:37.279Z,73.84
2023-01-13T03:30:14.590Z,73.72
2023-01-13T03:32:50.835Z,73.85
2023-01-13T03:35:27.794Z,73.87
2023-01-13T03:38:05.313Z,73.89
2023-01-13T03:40:42.879Z,73.88
2023-01-13T03:43:38.168Z,73.76
2023-01-13T03:46:18.291Z,73.97
2023-01-13T03:48:56.712Z,74.06
2023-01-13T03:51:33.224Z,74.16
2023-01-13T03:54:09.446Z,73.87
2023-01-13T03:56:46.932Z,74.05
2023-01-13T03:59:24.288Z,74.01
2023-01-13T04:02:04.126Z,74.25
2023-01-13T04:04:42.366Z,74.01
2023-01-13T04:07:21.798Z,74.16
2023-01-13T04:09:57.040Z,74.05
2023-01-13T04:12:52.247Z,74.30
2023-01-13T04:15:28.603Z,74.46
2023-01-13T04:18:12.788Z,74.36
2023-01-13T04:20:46.730Z,74.27
2023-01-13T04:23:20.474Z,74.27
2023-01-13T04:25:53.245Z,74.33
2023-01-13T04:28:26.374Z,74.44
2023-01-13T04:30:58.696Z,74.54
2023-01-13T04:33:30.887Z,74.47
2023-01-13T04:36:03.073Z,74.35
2023-01-13T04:38:35.490Z,74.30
2023-01-13T04:41:07.785Z,74.29
2023-01-13T04:43:39.992Z,74.33
2023-01-13T04:46:12.267Z,74.43
2023-01-13T04:48:44.538Z,74.32
2023-01-13T04:51:16.783Z,74.40
2023-01-13T04:53:48.990Z,74.59
2023-01-13T04:56:21.259Z,74.48
2023-01-13T04:58:53.443Z,74.53
2023-01-13T05:01:26.249Z,74.44
2023-01-13T05:03:58.913Z,74.48
2023-01-13T05:06:32.069Z,74.56
2023-01-13T05:09:04.415Z,74.59
2023-01-13T05:11:54.051Z,74.44
2023-01-13T05:14:43.916Z,74.45
2023-01-13T05:17:21.377Z,74.35
2023-01-13T05:19:54.117Z,74.42
2023-01-13T05:22:43.871Z,74.38
2023-01-13T05:25:26.229Z,74.44
2023-01-13T05:27:59.703Z,74.30
2023-01-13T05:30:35.065Z,74.32
2023-01-13T05:33:07.552Z,74.23
2023-01-13T05:35:40.939Z,74.26
2023-01-13T05:38:14.446Z,74.21
2023-01-13T05:41:04.420Z,74.19
2023-01-13T05:43:36.782Z,74.40
2023-01-13T05:46:11.482Z,74.36
2023-01-13T05:48:45.656Z,74.44
2023-01-13T05:51:17.870Z,74.35
2023-01-13T05:53:50.049Z,74.29
2023-01-13T05:56:22.266Z,74.40
2023-01-13T05:58:54.457Z,74.60
2023-01-13T06:01:26.759Z,74.48
2023-01-13T06:03:58.933Z,74.40
2023-01-13T06:06:31.307Z,74.47
2023-01-13T06:09:03.613Z,74.47
2023-01-13T06:11:35.921Z,74.78
2023-01-13T06:14:08.272Z,74.57
2023-01-13T06:16:40.551Z,74.69
2023-01-13T06:19:13.902Z,74.78
2023-01-13T06:21:46.238Z,74.84
2023-01-13T06:24:18.441Z,74.94
2023-01-13T06:26:50.649Z,74.79
2023-01-13T06:29:22.853Z,74.81
2023-01-13T06:31:55.197Z,74.92
2023-01-13T06:34:27.495Z,74.91
2023-01-13T06:36:59.885Z,74.78
2023-01-13T06:39:33.186Z,74.69
2023-01-13T06:42:23.873Z,74.83
2023-01-13T06:44:56.156Z,74.98
2023-01-13T06:47:28.362Z,75.13
2023-01-13T06:50:01.007Z,75.16
2023-01-13T06:52:33.354Z,75.13
2023-01-13T06:55:06.615Z,75.14
2023-01-13T06:57:50.799Z,75.17
2023-01-13T07:00:25.476Z,75.15
2023-01-13T07:03:08.954Z,75.07
2023-01-13T07:05:42.238Z,75.07
2023-01-13T07:08:14.545Z,75.17
2023-01-13T07:10:46.823Z,75.06
2023-01-13T07:13:36.448Z,75.04
2023-01-13T07:16:10.721Z,74.96
2023-01-13T07:18:43.351Z,75.03
2023-01-13T07:21:19.045Z,75.22
2023-01-13T07:23:51.347Z,75.08
2023-01-13T07:26:23.536Z,75.14
2023-01-13T07:28:55.794Z,74.99
2023-01-13T07:31:28.025Z,74.99
2023-01-13T07:34:00.859Z,75.30
2023-01-13T07:36:33.141Z,75.15
2023-01-13T07:39:06.221Z,74.87
2023-01-13T07:41:56.205Z,74.89
2023-01-13T07:44:28.497Z,74.79
2023-01-13T07:47:00.707Z,75.04
2023-01-13T07:49:33.265Z,74.94
2023-01-13T07:52:05.797Z,74.82
2023-01-13T07:54:41.093Z,74.88
2023-01-13T07:57:13.834Z,74.85
2023-01-13T07:59:46.060Z,74.84
2023-01-13T08:02:18.401Z,74.93
2023-01-13T08:04:51.044Z,74.86
2023-01-13T08:07:23.398Z,74.99
2023-01-13T08:09:55.677Z,74.91
2023-01-13T08:12:54.369Z,74.99
2023-01-13T08:15:29.998Z,75.10
2023-01-13T08:18:02.318Z,75.11
2023-01-13T08:20:34.812Z,75.21
2023-01-13T08:23:07.450Z,75.08
2023-01-13T08:25:39.879Z,75.08
2023-01-13T08:28:12.500Z,75.14
2023-01-13T08:30:45.105Z,75.01
2023-01-13T08:33:17.654Z,75.11
2023-01-13T08:35:52.727Z,75.09
2023-01-13T08:38:26.221Z,75.02
2023-01-13T08:40:58.710Z,75.10
2023-01-13T08:43:30.874Z,75.13
2023-01-13T08:46:05.424Z,74.87
2023-01-13T08:48:37.729Z,75.04
2023-01-13T08:51:11.129Z,75.10
2023-01-13T08:53:43.466Z,75.12
2023-01-13T08:56:17.148Z,75.09
2023-01-13T08:58:49.339Z,75.04
2023-01-13T09:01:24.698Z,75.31
2023-01-13T09:03:57.268Z,75.17
2023-01-13T09:06:29.616Z,75.26
2023-01-13T09:09:02.543Z,75.01
2023-01-13T09:11:56.289Z,74.72
2023-01-13T09:14:31.240Z,74.68
2023-01-13T09:17:03.695Z,74.77
2023-01-13T09:19:36.237Z,74.71
2023-01-13T09:22:08.663Z,75.09
2023-01-13T09:24:40.800Z,74.85
2023-01-13T09:27:14.380Z,74.72
2023-01-13T09:29:46.715Z,74.71
2023-01-13T09:32:19.205Z,74.84
2023-01-13T09:35:03.995Z,74.80
2023-01-13T09:37:39.051Z,74.63
2023-01-13T09:40:18.214Z,74.77
2023-01-13T09:43:15.075Z,74.82
2023-01-13T09:45:50.984Z,74.75
2023-01-13T09:48:23.863Z,74.80
2023-01-13T09:51:09.722Z,74.83
2023-01-13T09:53:49.119Z,74.69
2023-01-13T09:56:21.443Z,74.80
2023-01-13T09:58:53.789Z,75.00
2023-01-13T10:01:34.101Z,74.63
2023-01-13T10:04:11.498Z,74.55
2023-01-13T10:06:48.409Z,74.80
2023-01-13T10:09:28.481Z,74.63
2023-01-13T10:12:20.667Z,74.66
2023-01-13T10:14:56.759Z,74.79
2023-01-13T10:17:35.383Z,74.72
2023-01-13T10:20:22.480Z,74.96
2023-01-13T10:23:07.912Z,75.01
2023-01-13T10:25:57.163Z,74.85
2023-01-13T10:28:29.386Z,74.89
2023-01-13T10:31:01.816Z,74.75
2023-01-13T10:33:34.059Z,74.74
2023-01-13T10:36:14.832Z,74.81
2023-01-13T10:38:48.837Z,74.83
2023-01-13T10:41:25.632Z,74.79
2023-01-13T10:44:08.556Z,74.92
2023-01-13T10:46:56.509Z,74.67
2023-01-13T10:49:38.725Z,74.79
2023-01-13T10:52:31.322Z,74.96
2023-01-13T10:55:03.695Z,74.70
2023-01-13T10:57:39.083Z,74.63
2023-01-13T11:00:28.798Z,74.87
2023-01-13T11:03:17.242Z,74.85
2023-01-13T11:05:55.009Z,74.94
2023-01-13T11:08:30.292Z,74.94
2023-01-13T11:11:02.616Z,74.88
2023-01-13T11:14:00.881Z,74.98
2023-01-13T11:16:34.283Z,75.05
2023-01-13T11:19:13.211Z,74.99
2023-01-13T11:21:54.588Z,74.63
2023-01-13T11:24:36.310Z,75.20
2023-01-13T11:27:14.449Z,75.17
2023-01-13T11:30:00.645Z,75.37
2023-01-13T11:32:38.355Z,74.96
2023-01-13T11:35:19.444Z,74.89
2023-01-13T11:37:56.427Z,74.91
2023-01-13T11:40:35.577Z,74.89
2023-01-13T11:43:19.275Z,75.09
2023-01-13T11:45:57.583Z,75.08
2023-01-13T11:48:33.213Z,74.91
2023-01-13T11:51:13.312Z,74.87
2023-01-13T11:54:04.383Z,74.82
2023-01-13T11:56:55.394Z,74.90
2023-01-13T11:59:53.396Z,75.21
2023-01-13T12:02:37.208Z,75.14
2023-01-13T12:05:19.089Z,74.93
2023-01-13T12:08:05.185Z,75.01
2023-01-13T12:10:52.826Z,74.99
2023-01-13T12:13:35.635Z,74.91
2023-01-13T12:16:24.828Z,74.61
2023-01-13T12:19:33.850Z,74.96
2023-01-13T12:22:12.808Z,74.69
2023-01-13T12:24:52.516Z,74.65
2023-01-13T12:27:32.453Z,74.60
2023-01-13T12:30:14.541Z,74.60
2023-01-13T12:32:47.708Z,74.66
2023-01-13T12:35:31.045Z,74.64
2023-01-13T12:38:12.979Z,74.85
2023-01-13T12:40:55.563Z,74.93
2023-01-13T12:43:45.439Z,75.01
2023-01-13T12:46:57.456Z,75.04
2023-01-13T12:49:32.939Z,74.87
2023-01-13T12:52:24.433Z,74.76
2023-01-13T12:55:18.234Z,74.83
2023-01-13T12:58:19.351Z,74.83
2023-01-13T13:01:01.788Z,74.80
2023-01-13T13:03:37.240Z,74.69
2023-01-13T13:06:18.727Z,74.83
2023-01-13T13:09:03.683Z,74.76
2023-01-13T13:12:03.786Z,74.63
2023-01-13T13:15:07.167Z,74.92
2023-01-13T13:17:47.219Z,74.78
2023-01-13T13:20:56.554Z,74.94
2023-01-13T13:24:03.029Z,74.68
2023-01-13T13:26:45.924Z,74.67
2023-01-13T13:29:39.264Z,74.79
2023-01-13T13:32:47.791Z,74.72
2023-01-13T13:35:40.321Z,75.16
2023-01-13T13:38:43.622Z,75.01
2023-01-13T13:41:38.734Z,74.91
2023-01-13T13:44:38.008Z,74.82
2023-01-13T13:47:10.571Z,75.10
2023-01-13T13:49:46.707Z,74.84
2023-01-13T13:52:25.870Z,74.98
2023-01-13T13:55:07.588Z,74.73
2023-01-13T13:57:42.535Z,74.86
2023-01-13T14:00:25.054Z,75.07
2023-01-13T14:03:01.215Z,74.73
2023-01-13T14:05:35.153Z,74.95
2023-01-13T14:08:18.368Z,74.94
2023-01-13T14:10:50.879Z,74.86
2023-01-13T14:13:25.898Z,74.91
2023-01-13T14:16:01.142Z,74.98
2023-01-13T14:18:36.681Z,75.09
2023-01-13T14:21:22.186Z,74.70
2023-01-13T14:23:57.071Z,75.01
2023-01-13T14:26:31.134Z,74.81
2023-01-13T14:29:04.629Z,74.66
2023-01-13T14:31:39.741Z,74.82
2023-01-13T14:34:31.987Z,74.74
2023-01-13T14:37:22.666Z,74.58
2023-01-13T14:39:55.564Z,74.55
2023-01-13T14:42:29.877Z,74.60
2023-01-13T14:45:03.458Z,74.93
2023-01-13T14:47:35.950Z,74.72
2023-01-13T14:50:18.775Z,74.84
2023-01-13T14:52:54.827Z,74.65
2023-01-13T14:55:31.381Z,74.95
2023-01-13T14:58:28.466Z,74.84
2023-01-13T15:01:28.953Z,74.71
2023-01-13T15:04:25.880Z,74.60
2023-01-13T15:07:00.882Z,74.86
2023-01-13T15:09:40.075Z,74.97
2023-01-13T15:12:25.868Z,74.73
2023-01-13T15:14:59.657Z,74.78
2023-01-13T15:17:31.843Z,74.89
2023-01-13T15:20:04.084Z,74.90
2023-01-13T15:22:36.460Z,75.06
2023-01-13T15:25:10.906Z,74.78
2023-01-13T15:27:45.392Z,75.22
2023-01-13T15:30:20.086Z,75.00
2023-01-13T15:32:53.334Z,74.65
2023-01-13T15:35:27.120Z,74.80
2023-01-13T15:37:59.644Z,74.74
2023-01-13T15:40:34.103Z,74.66
2023-01-13T15:43:23.687Z,74.79
2023-01-13T15:46:25.029Z,74.96
2023-01-13T15:48:58.758Z,74.89
2023-01-13T15:51:30.923Z,74.87
2023-01-13T15:54:03.237Z,74.80
2023-01-13T15:56:37.795Z,74.72
2023-01-13T15:59:17.791Z,74.44
2023-01-13T16:01:50.082Z,74.79
2023-01-13T16:04:22.656Z,74.77
2023-01-13T16:06:55.418Z,74.96
2023-01-13T16:09:27.603Z,74.71
2023-01-13T16:11:59.776Z,74.81
2023-01-13T16:14:31.947Z,75.01
2023-01-13T16:17:05.853Z,74.96
2023-01-13T16:19:38.013Z,75.01
2023-01-13T16:22:13.544Z,75.03
2023-01-13T16:24:48.420Z,75.07
2023-01-13T16:27:23.164Z,74.79
2023-01-13T16:29:55.537Z,74.74
2023-01-13T16:32:27.759Z,75.02
2023-01-13T16:34:59.921Z,74.89
2023-01-13T16:37:32.200Z,74.96
2023-01-13T16:40:04.764Z,75.16
2023-01-13T16:42:37.398Z,74.81
2023-01-13T16:45:11.125Z,75.01
2023-01-13T16:47:44.497Z,75.06
2023-01-13T16:50:27.169Z,74.83
2023-01-13T16:52:59.402Z,75.00
2023-01-13T16:55:31.713Z,74.97
2023-01-13T16:58:04.413Z,74.97
2023-01-13T17:00:36.705Z,74.92
2023-01-13T17:03:08.971Z,75.00
2023-01-13T17:05:43.257Z,74.89
2023-01-13T17:08:17.814Z,75.03
2023-01-13T17:10:51.837Z,75.14
2023-01-13T17:13:24.543Z,74.82
2023-01-13T17:15:56.762Z,75.00
2023-01-13T17:18:28.893Z,74.73
2023-01-13T17:21:01.606Z,75.10
2023-01-13T17:23:33.920Z,75.13
2023-01-13T17:26:06.468Z,75.24
2023-01-13T17:28:39.324Z,74.98
2023-01-13T17:31:11.489Z,75.14
2023-01-13T17:33:43.653Z,74.98
2023-01-13T17:36:16.014Z,74.92
2023-01-13T17:38:48.237Z,75.01
2023-01-13T17:41:20.427Z,74.95
2023-01-13T17:43:52.980Z,74.95
2023-01-13T17:46:25.181Z,74.93
2023-01-13T17:48:57.661Z,75.23
2023-01-13T17:51:30.321Z,75.10
2023-01-13T17:54:02.602Z,74.91
2023-01-13T17:56:34.802Z,75.18
2023-01-13T17:59:08.910Z,75.34
2023-01-13T18:01:42.544Z,75.34
2023-01-13T18:04:17.910Z,75.11
2023-01-13T18:06:50.736Z,75.21
2023-01-13T18:09:23.489Z,74.90
2023-01-13T18:11:55.761Z,75.05
2023-01-13T18:14:28.340Z,74.91
2023-01-13T18:17:00.636Z,74.92
2023-01-13T18:19:50.551Z,75.04
2023-01-13T18:22:40.226Z,74.73
2023-01-13T18:25:31.543Z,74.98
2023-01-13T18:28:04.019Z,75.03
2023-01-13T18:30:36.868Z,74.79
2023-01-13T18:33:09.033Z,74.92
2023-01-13T18:35:42.449Z,74.86
2023-01-13T18:38:15.428Z,74.94
2023-01-13T18:40:47.722Z,75.18
2023-01-13T18:43:20.041Z,75.14
2023-01-13T18:45:53.784Z,75.17
2023-01-13T18:48:25.959Z,75.12
2023-01-13T18:50:58.173Z,75.22
2023-01-13T18:53:30.329Z,75.04
2023-01-13T18:56:05.655Z,74.93
2023-01-13T18:58:40.199Z,74.70
2023-01-13T19:01:12.534Z,74.72
2023-01-13T19:03:44.892Z,75.00
2023-01-13T19:06:17.499Z,74.99
2023-01-13T19:08:53.350Z,74.95
2023-01-13T19:11:24.752Z,75.11
2023-01-13T19:13:57.028Z,74.86
2023-01-13T19:16:29.355Z,75.06
2023-01-13T19:19:02.282Z,75.03
2023-01-13T19:21:34.434Z,75.16
2023-01-13T19:24:07.231Z,75.07
2023-01-13T19:26:39.396Z,74.89
2023-01-13T19:29:12.916Z,75.11
2023-01-13T19:31:45.153Z,75.05
2023-01-13T19:34:17.477Z,75.08
2023-01-13T19:36:53.669Z,75.15
2023-01-13T19:39:26.190Z,74.83
2023-01-13T19:42:15.913Z,75.06
2023-01-13T19:45:05.808Z,75.17
2023-01-13T19:47:38.751Z,74.95
2023-01-13T19:50:12.749Z,74.84
2023-01-13T19:52:45.435Z,75.06
2023-01-13T19:55:17.591Z,75.18
2023-01-13T19:57:50.014Z,75.11
2023-01-13T20:00:23.989Z,75.27
2023-01-13T20:03:00.743Z,75.01
2023-01-13T20:05:33.030Z,75.16
2023-01-13T20:08:05.357Z,75.29
2023-01-13T20:10:38.187Z,75.04
2023-01-13T20:13:10.341Z,75.09
2023-01-13T20:15:44.048Z,75.08
2023-01-13T20:18:16.623Z,75.20
2023-01-13T20:20:48.845Z,75.30
2023-01-13T20:23:21.099Z,75.13
2023-01-13T20:25:53.322Z,75.30
2023-01-13T20:28:25.551Z,75.35
2023-01-13T20:30:57.778Z,75.22
2023-01-13T20:33:29.965Z,75.57
2023-01-13T20:36:02.297Z,75.34
2023-01-13T20:38:38.460Z,75.49
2023-01-13T20:41:24.565Z,75.48
2023-01-13T20:43:56.784Z,75.52
2023-01-13T20:46:29.394Z,75.41
2023-01-13T20:49:01.671Z,75.50
2023-01-13T20:51:33.980Z,75.73
2023-01-13T20:54:06.413Z,75.52
2023-01-13T20:56:40.594Z,75.50
2023-01-13T20:59:13.231Z,75.51
2023-01-13T21:01:46.028Z,75.62
2023-01-13T21:04:18.289Z,75.70
2023-01-13T21:06:51.097Z,75.46
2023-01-13T21:09:23.775Z,75.58
2023-01-13T21:12:13.888Z,75.44
2023-01-13T21:15:03.703Z,75.56
2023-01-13T21:17:53.222Z,75.60
2023-01-13T21:20:25.615Z,75.77
2023-01-13T21:22:57.869Z,75.67
2023-01-13T21:25:30.186Z,75.65
2023-01-13T21:28:06.812Z,75.79
2023-01-13T21:30:39.469Z,75.80
2023-01-13T21:33:15.126Z,75.74
2023-01-13T21:35:47.396Z,75.68
2023-01-13T21:38:19.728Z,75.80
2023-01-13T21:41:04.952Z,76.02
2023-01-13T21:43:55.290Z,75.83
2023-01-13T21:46:45.393Z,75.87
2023-01-13T21:49:17.604Z,75.58
2023-01-13T21:51:49.868Z,75.62
2023-01-13T21:54:22.227Z,75.52
2023-01-13T21:56:54.498Z,75.76
2023-01-13T21:59:26.623Z,75.88
2023-01-13T22:02:24.416Z,75.72
2023-01-13T22:04:57.273Z,75.92
2023-01-13T22:07:29.913Z,75.89
2023-01-13T22:10:03.972Z,76.09
2023-01-13T22:12:36.549Z,75.88
2023-01-13T22:15:11.455Z,75.81
2023-01-13T22:17:45.747Z,76.20
2023-01-13T22:20:19.368Z,76.05
2023-01-13T22:22:51.830Z,76.04
2023-01-13T22:25:24.176Z,76.11
2023-01-13T22:28:03.762Z,76.09
2023-01-13T22:30:35.969Z,75.87
2023-01-13T22:33:08.219Z,76.09
2023-01-13T22:35:40.462Z,76.06
2023-01-13T22:38:12.745Z,75.94
2023-01-13T22:40:45.069Z,76.23
2023-01-13T22:43:17.440Z,76.04
2023-01-13T22:45:59.115Z,75.95
2023-01-13T22:48:31.740Z,76.01
2023-01-13T22:51:09.427Z,75.97
2023-01-13T22:53:42.264Z,76.02
2023-01-13T22:56:19.659Z,75.74
2023-01-13T22:58:55.755Z,75.85
2023-01-13T23:01:29.250Z,75.98
2023-01-13T23:04:01.599Z,75.91
2023-01-13T23:06:35.099Z,75.90
2023-01-13T23:09:07.324Z,75.88
2023-01-13T23:11:39.918Z,75.79
2023-01-13T23:14:14.123Z,75.88
2023-01-13T23:16:48.134Z,75.80
2023-01-13T23:19:20.338Z,75.80
2023-01-13T23:21:52.741Z,75.83
2023-01-13T23:24:26.859Z,75.77
2023-01-13T23:26:59.173Z,75.77
2023-01-13T23:29:31.340Z,75.88
2023-01-13T23:32:03.797Z,75.61
2023-01-13T23:34:36.195Z,75.79
2023-01-13T23:37:08.420Z,75.95
2023-01-13T23:39:40.719Z,75.97
2023-01-13T23:42:12.896Z,75.86
2023-01-13T23:44:45.149Z,75.92
2023-01-13T23:47:17.312Z,75.73
2023-01-13T23:49:49.518Z,76.04
2023-01-13T23:52:21.705Z,75.76
2023-01-13T23:54:53.966Z,75.68
2023-01-13T23:57:26.272Z,75.55
2023-01-13T23:59:58.510Z,76.02
